Flight Track Log - Related Links

Times and Time Zones

All times are in EDT time to prevent confusion due to time zone crossing. See the FDX1347 flight status page for this flight to view local times or setup timezone preferences in your user account.

Time Position Orientation Groundspeed Altitude Reporting Facility
EDT Latitude Longitude Course Direction KTS MPH feet Rate Location/Type
Mon 09:49:05 PM 42.7339 -73.8081 248° West 153 176 1,300  Level Boston Center
Mon 09:50:18 PM 42.7122 -73.8811 248° West 254 292 4,400 2,977 Climbing Boston Center
Mon 09:51:14 PM 42.7194 -73.9689 276° West 275 316 7,700 3,310 Climbing Boston Center
Mon 09:52:14 PM 42.7283 -74.0822 276° West 275 316 10,800 2,600 Climbing Boston Center
Mon 09:53:14 PM 42.7386 -74.2211 276° West 327 376 12,900 2,500 Climbing Boston Center
Mon 09:54:14 PM 42.7114 -74.3558 255° West 370 426 15,800 2,247 Climbing Boston Center
Mon 10:00:32 PM 42.2960 -75.2410 255° West 473 544 29,300 2,142 Climbing FlightAware ADS-B
Mon 10:01:17 PM 42.2440 -75.3490 237° Southwest 467 537 30,900 2,047 Climbing FlightAware ADS-B
Mon 10:01:57 PM 42.1940 -75.4540 237° Southwest 466 536 32,200 1,875 Climbing FlightAware ADS-B
Mon 10:02:37 PM 42.1550 -75.5340 237° Southwest 467 537 33,400 1,800 Climbing FlightAware ADS-B
Mon 10:03:17 PM 42.1100 -75.6270 237° Southwest 453 521 34,600 1,765 Climbing FlightAware ADS-B
Mon 10:04:02 PM 42.0530 -75.7510 238° Southwest 449 517 35,900 1,650 Climbing FlightAware ADS-B
Mon 10:04:37 PM 42.0180 -75.8310 240° Southwest 445 512 36,800 1,482 Climbing FlightAware ADS-B
Mon 10:05:27 PM 41.9670 -75.9520 240° Southwest 441 507 38,000 1,412 Climbing FlightAware ADS-B
Mon 10:06:02 PM 41.9277 -76.0474 241° Southwest 440 506 38,800 1,164 Climbing FlightAware ADS-B
Mon 10:06:34 PM 41.8960 -76.1236 241° Southwest 440 506 39,300 857 Climbing FlightAware ADS-B
Mon 10:07:05 PM 41.8654 -76.1973 241° Southwest 440 506 39,700 689 Climbing FlightAware ADS-B
Mon 10:07:35 PM 41.8354 -76.2684 240° Southwest 440 506 40,000 300 Climbing FlightAware ADS-B
Mon 10:08:05 PM 41.8051 -76.3395 240° Southwest 440 506 40,000  Level FlightAware ADS-B
Mon 10:08:35 PM 41.7749 -76.4107 240° Southwest 442 509 40,000  Level FlightAware ADS-B
Mon 10:09:08 PM 41.7420 -76.4893 241° Southwest 442 509 40,000  Level FlightAware ADS-B
Mon 10:09:39 PM 41.7105 -76.5630 240° Southwest 444 511 40,000  Level FlightAware ADS-B
Mon 10:10:09 PM 41.6798 -76.6344 240° Southwest 445 512 40,000  Level FlightAware ADS-B
Mon 10:10:40 PM 41.6482 -76.7085 240° Southwest 446 513 40,000  Level FlightAware ADS-B
Mon 10:11:11 PM 41.6167 -76.7826 240° Southwest 447 514 40,000  Level FlightAware ADS-B
Mon 10:11:45 PM 41.5817 -76.8639 240° Southwest 447 514 40,000  Level FlightAware ADS-B
Mon 10:12:16 PM 41.5500 -76.9355 239° Southwest 446 513 40,000  Level FlightAware ADS-B
Mon 10:12:51 PM 41.5133 -77.0214 240° Southwest 447 514 40,000  Level FlightAware ADS-B
Mon 10:13:22 PM 41.4860 -77.0830 239° Southwest 446 513 40,000  Level FlightAware ADS-B
Mon 10:13:36 PM 41.4673 -77.1262 240° Southwest 446 513 40,000  Level FlightAware ADS-B
Mon 10:14:07 PM 41.4346 -77.2021 240° Southwest 447 514 40,000  Level FlightAware ADS-B
Mon 10:14:40 PM 41.4006 -77.2806 240° Southwest 447 514 40,000  Level FlightAware ADS-B
Mon 10:15:20 PM 41.3596 -77.3733 240° Southwest 446 513 40,000  Level FlightAware ADS-B
Mon 10:15:55 PM 41.3228 -77.4588 240° Southwest 448 516 40,000  Level FlightAware ADS-B
Mon 10:16:52 PM 41.2730 -77.5730 240° Southwest 446 513 40,000  Level FlightAware ADS-B
Mon 10:17:22 PM 41.2321 -77.6648 239° Southwest 447 514 40,000  Level FlightAware ADS-B
Mon 10:18:09 PM 41.1824 -77.7760 239° Southwest 446 513 40,000  Level FlightAware ADS-B
Mon 10:18:51 PM 41.1382 -77.8748 239° Southwest 447 514 40,000  Level FlightAware ADS-B
Mon 10:19:42 PM 41.0910 -77.9800 239° Southwest 442 509 40,000  Level FlightAware ADS-B
Mon 10:20:22 PM 41.0500 -78.0730 240° Southwest 441 507 40,000  Level FlightAware ADS-B
Mon 10:21:07 PM 41.0030 -78.1780 239° Southwest 442 509 40,000  Level FlightAware ADS-B
Mon 10:21:42 PM 40.9660 -78.2590 239° Southwest 442 509 40,000  Level FlightAware ADS-B
Mon 10:22:27 PM 40.9220 -78.3570 239° Southwest 442 509 40,000  Level FlightAware ADS-B
Mon 10:23:12 PM 40.8720 -78.4680 239° Southwest 444 511 40,000  Level FlightAware ADS-B
Mon 10:23:52 PM 40.8290 -78.5630 239° Southwest 445 512 40,000  Level FlightAware ADS-B
Mon 10:24:37 PM 40.7820 -78.6650 239° Southwest 445 512 40,000  Level FlightAware ADS-B
Mon 10:25:17 PM 40.7380 -78.7610 239° Southwest 447 514 40,000  Level FlightAware ADS-B
Mon 10:25:57 PM 40.6970 -78.8470 238° Southwest 448 516 40,000  Level FlightAware ADS-B
Mon 10:26:37 PM 40.6530 -78.9430 239° Southwest 449 517 40,000  Level FlightAware ADS-B
Mon 10:27:22 PM 40.6080 -79.0420 239° Southwest 451 519 40,000  Level FlightAware ADS-B
Mon 10:28:07 PM 40.5570 -79.1520 239° Southwest 451 519 40,000  Level FlightAware ADS-B
Mon 10:28:47 PM 40.5110 -79.2500 238° Southwest 453 521 40,000  Level FlightAware ADS-B
Mon 10:29:27 PM 40.4660 -79.3460 238° Southwest 453 521 40,000  Level FlightAware ADS-B
Mon 10:30:07 PM 40.4230 -79.4380 238° Southwest 454 522 40,000  Level FlightAware ADS-B
Mon 10:30:52 PM 40.3680 -79.5560 239° Southwest 456 525 40,000  Level FlightAware ADS-B
Mon 10:31:37 PM 40.3180 -79.6620 238° Southwest 458 527 40,000  Level FlightAware ADS-B
Mon 10:32:17 PM 40.2750 -79.7510 238° Southwest 458 527 40,000  Level FlightAware ADS-B
Mon 10:32:57 PM 40.2300 -79.8480 239° Southwest 459 528 40,000  Level FlightAware ADS-B
Mon 10:33:42 PM 40.1780 -79.9540 237° Southwest 461 531 40,000  Level FlightAware ADS-B
Mon 10:34:22 PM 40.1330 -80.0490 238° Southwest 461 531 40,000  Level FlightAware ADS-B
Mon 10:35:02 PM 40.0900 -80.1410 239° Southwest 460 529 40,000  Level FlightAware ADS-B
Mon 10:35:47 PM 40.0410 -80.2420 238° Southwest 460 529 40,000  Level FlightAware ADS-B
Mon 10:36:27 PM 39.9950 -80.3380 238° Southwest 459 528 40,000  Level FlightAware ADS-B
Mon 10:37:12 PM 39.9470 -80.4370 238° Southwest 460 529 40,000  Level FlightAware ADS-B
Mon 10:37:52 PM 39.8970 -80.5400 238° Southwest 461 531 40,000  Level FlightAware ADS-B
Mon 10:38:32 PM 39.8500 -80.6360 237° Southwest 462 532 40,000  Level FlightAware ADS-B
Mon 10:39:17 PM 39.7990 -80.7390 237° Southwest 463 533 40,000  Level FlightAware ADS-B
Mon 10:39:57 PM 39.7510 -80.8380 238° Southwest 464 534 40,000  Level FlightAware ADS-B
Mon 10:40:42 PM 39.7000 -80.9420 238° Southwest 466 536 40,000  Level FlightAware ADS-B
Mon 10:41:22 PM 39.6530 -81.0360 237° Southwest 467 537 40,000  Level FlightAware ADS-B
Mon 10:42:07 PM 39.6010 -81.1420 238° Southwest 468 539 40,000  Level FlightAware ADS-B
Mon 10:42:47 PM 39.5530 -81.2390 237° Southwest 469 540 40,000  Level FlightAware ADS-B
Mon 10:43:27 PM 39.5060 -81.3330 237° Southwest 469 540 40,000  Level FlightAware ADS-B
Mon 10:44:12 PM 39.4540 -81.4370 237° Southwest 470 541 40,000  Level FlightAware ADS-B
Mon 10:44:52 PM 39.4060 -81.5320 237° Southwest 470 541 40,000  Level FlightAware ADS-B
Mon 10:45:32 PM 39.3590 -81.6260 237° Southwest 471 542 40,000  Level FlightAware ADS-B
Mon 10:46:17 PM 39.3080 -81.7270 237° Southwest 472 543 40,000  Level FlightAware ADS-B
Mon 10:46:57 PM 39.2590 -81.8240 237° Southwest 472 543 40,000  Level FlightAware ADS-B
Mon 10:47:42 PM 39.2030 -81.9350 237° Southwest 473 544 40,000  Level FlightAware ADS-B
Mon 10:48:22 PM 39.1560 -82.0270 237° Southwest 474 545 40,000  Level FlightAware ADS-B
Mon 10:49:07 PM 39.1070 -82.1240 237° Southwest 473 544 40,000  Level FlightAware ADS-B
Mon 10:49:47 PM 39.0540 -82.2250 236° Southwest 474 545 40,000  Level FlightAware ADS-B
Mon 10:50:27 PM 39.0080 -82.3170 237° Southwest 475 547 40,000  Level FlightAware ADS-B
Mon 10:51:12 PM 38.9500 -82.4300 237° Southwest 475 547 40,000  Level FlightAware ADS-B
Mon 10:51:42 PM 38.9140 -82.4980 236° Southwest 476 548 40,000  Level FlightAware ADS-B
Mon 10:52:32 PM 38.8540 -82.6160 237° Southwest 476 548 40,000  Level FlightAware ADS-B
Mon 10:53:12 PM 38.8080 -82.7030 236° Southwest 476 548 40,000  Level FlightAware ADS-B
Mon 10:54:12 PM 38.7300 -82.8510 236° Southwest 476 548 40,000  Level FlightAware ADS-B
Mon 10:54:52 PM 38.6830 -82.9420 237° Southwest 475 547 40,000  Level FlightAware ADS-B
Mon 10:55:37 PM 38.6270 -83.0470 236° Southwest 474 545 40,000  Level FlightAware ADS-B
Mon 10:56:12 PM 38.5900 -83.1180 236° Southwest 474 545 40,000  Level FlightAware ADS-B
Mon 10:56:52 PM 38.5480 -83.1970 236° Southwest 474 545 40,000  Level FlightAware ADS-B
Mon 10:57:42 PM 38.4960 -83.2960 236° Southwest 474 545 40,000  Level FlightAware ADS-B
Mon 10:58:22 PM 38.4540 -83.3750 236° Southwest 474 545 40,000  Level FlightAware ADS-B
Mon 10:59:07 PM 38.3680 -83.5360 236° Southwest 475 547 40,000  Level FlightAware ADS-B
Mon 11:00:02 PM 38.3030 -83.6590 236° Southwest 477 549 40,000  Level FlightAware ADS-B
Mon 11:00:42 PM 38.2600 -83.7370 235° Southwest 477 549 40,000  Level FlightAware ADS-B
Mon 11:01:07 PM 38.2175 -83.8170 236° Southwest 477 549 40,000  Level FlightAware ADS-B
Mon 11:01:39 PM 38.1767 -83.8933 236° Southwest 477 549 40,000  Level FlightAware ADS-B
Mon 11:02:22 PM 38.1320 -83.9750 235° Southwest 476 548 40,000  Level FlightAware ADS-B
Mon 11:03:02 PM 38.0770 -84.0780 236° Southwest 475 547 40,000  Level FlightAware ADS-B
Mon 11:03:47 PM 38.0230 -84.1760 235° Southwest 474 545 40,000  Level FlightAware ADS-B
Mon 11:04:27 PM 37.9690 -84.2770 236° Southwest 473 544 40,000  Level FlightAware ADS-B
Mon 11:05:12 PM 37.9140 -84.3740 234° Southwest 471 542 40,000  Level FlightAware ADS-B
Mon 11:05:52 PM 37.8650 -84.4650 236° Southwest 472 543 40,000  Level FlightAware ADS-B
Mon 11:06:32 PM 37.8150 -84.5550 235° Southwest 472 543 40,000  Level FlightAware ADS-B
Mon 11:06:47 PM 37.7934 -84.5963 237° Southwest 473 544 40,000  Level FlightAware ADS-B
Mon 11:07:17 PM 37.7558 -84.6643 235° Southwest 473 544 40,000  Level FlightAware ADS-B
Mon 11:07:48 PM 37.7168 -84.7343 235° Southwest 473 544 40,000  Level FlightAware ADS-B
Mon 11:08:19 PM 37.6780 -84.8045 235° Southwest 473 544 40,000  Level FlightAware ADS-B
Mon 11:08:50 PM 37.6390 -84.8742 235° Southwest 472 543 40,000  Level FlightAware ADS-B
Mon 11:09:20 PM 37.6012 -84.9418 235° Southwest 472 543 40,000  Level FlightAware ADS-B
Mon 11:09:52 PM 37.5621 -85.0116 235° Southwest 472 543 40,000  Level FlightAware ADS-B
Mon 11:10:22 PM 37.5245 -85.0788 235° Southwest 471 542 40,000  Level FlightAware ADS-B
Mon 11:10:52 PM 37.4863 -85.1482 235° Southwest 469 540 40,000  Level FlightAware ADS-B
Mon 11:11:23 PM 37.4473 -85.2172 235° Southwest 469 540 40,000  Level FlightAware ADS-B
Mon 11:11:54 PM 37.4093 -85.2839 234° Southwest 468 539 40,000  Level FlightAware ADS-B
Mon 11:12:24 PM 37.3718 -85.3503 235° Southwest 466 536 40,000  Level FlightAware ADS-B
Mon 11:12:54 PM 37.3341 -85.4186 235° Southwest 464 534 40,000  Level FlightAware ADS-B
Mon 11:13:24 PM 37.2964 -85.4846 234° Southwest 463 533 40,000  Level FlightAware ADS-B
Mon 11:13:55 PM 37.2587 -85.5519 235° Southwest 457 526 40,000  Level FlightAware ADS-B
Mon 11:14:25 PM 37.2220 -85.6163 234° Southwest 453 521 40,000  Level FlightAware ADS-B
Mon 11:14:55 PM 37.1851 -85.6797 234° Southwest 448 516 40,000  Level FlightAware ADS-B
Mon 11:15:26 PM 37.1482 -85.7452 235° Southwest 449 517 40,000  Level FlightAware ADS-B
Mon 11:15:56 PM 37.1115 -85.8088 234° Southwest 451 519 40,000  Level FlightAware ADS-B
Mon 11:16:26 PM 37.0750 -85.8726 234° Southwest 451 519 40,000  Level FlightAware ADS-B
Mon 11:16:52 PM 37.0440 -85.9281 235° Southwest 451 519 40,000  Level FlightAware ADS-B
Mon 11:17:03 PM 37.0336 -85.9532 243° Southwest 449 517 40,000  Level FlightAware ADS-B
Mon 11:17:14 PM 37.0252 -85.9797 248° West 448 516 40,000  Level FlightAware ADS-B
Mon 11:17:22 PM 37.0208 -85.9997 255° West 446 513 40,000  Level FlightAware ADS-B
Mon 11:17:57 PM 37.0090 -86.0800 260° West 444 511 40,000  Level FlightAware ADS-B
Mon 11:18:42 PM 36.9950 -86.1820 260° West 444 511 40,000  Level FlightAware ADS-B
Mon 11:19:22 PM 36.9830 -86.2690 260° West 444 511 40,000  Level FlightAware ADS-B
Mon 11:19:32 PM 36.9735 -86.3287 259° West 449 517 40,000  Level FlightAware ADS-B
Mon 11:19:52 PM 36.9616 -86.3788 253° West 453 521 40,000  Level FlightAware ADS-B
Mon 11:20:13 PM 36.9432 -86.4290 245° Southwest 457 526 40,000  Level FlightAware ADS-B
Mon 11:20:43 PM 36.9113 -86.4978 240° Southwest 459 528 40,000  Level FlightAware ADS-B
Mon 11:21:14 PM 36.8790 -86.5665 240° Southwest 459 528 40,000  Level FlightAware ADS-B
Mon 11:21:45 PM 36.8459 -86.6376 240° Southwest 459 528 40,000  Level FlightAware ADS-B
Mon 11:22:15 PM 36.8139 -86.7063 240° Southwest 459 528 40,000  Level FlightAware ADS-B
Mon 11:22:45 PM 36.7810 -86.7771 240° Southwest 459 528 40,000  Level FlightAware ADS-B
Mon 11:23:16 PM 36.7481 -86.8478 240° Southwest 458 527 40,000  Level FlightAware ADS-B
Mon 11:23:55 PM 36.7067 -86.9368 240° Southwest 458 527 40,000  Level FlightAware ADS-B
Mon 11:25:02 PM 36.6370 -87.0840 239° Southwest 457 526 40,000  Level FlightAware ADS-B
Mon 11:25:42 PM 36.5940 -87.1750 240° Southwest 458 527 40,000  Level FlightAware ADS-B
Mon 11:26:27 PM 36.5450 -87.2780 239° Southwest 459 528 40,000  Level FlightAware ADS-B
Mon 11:27:07 PM 36.5020 -87.3680 239° Southwest 458 527 40,000  Level FlightAware ADS-B
Mon 11:27:52 PM 36.4530 -87.4700 239° Southwest 458 527 40,000  Level FlightAware ADS-B
Mon 11:28:32 PM 36.4100 -87.5610 240° Southwest 456 525 40,000  Level FlightAware ADS-B
Mon 11:29:12 PM 36.3670 -87.6480 238° Southwest 456 525 40,000  Level FlightAware ADS-B
Mon 11:29:57 PM 36.3250 -87.7550 244° Southwest 448 516 40,000  Level FlightAware ADS-B
Mon 11:30:37 PM 36.3160 -87.8580 264° West 442 509 40,000  Level FlightAware ADS-B
Mon 11:31:17 PM 36.3110 -87.9570 266° West 440 506 40,000 -918 Level FlightAware ADS-B
Mon 11:32:02 PM 36.3040 -88.0690 266° West 460 529 38,700 -1,553 Descending FlightAware ADS-B
Mon 11:32:42 PM 36.2700 -88.1680 247° West 475 547 37,800 -675 Descending FlightAware ADS-B
Mon 11:33:22 PM 36.2240 -88.2460 234° Southwest 476 548 37,800  Level FlightAware ADS-B
Mon 11:34:02 PM 36.1800 -88.3210 234° Southwest 476 548 37,800  Level FlightAware ADS-B
Mon 11:34:52 PM 36.1250 -88.4150 234° Southwest 476 548 37,800  Level FlightAware ADS-B
Mon 11:35:32 PM 36.0810 -88.4900 234° Southwest 476 548 37,800  Level FlightAware ADS-B
Mon 11:36:12 PM 36.0370 -88.5640 234° Southwest 476 548 37,800  Level FlightAware ADS-B
Mon 11:36:52 PM 35.9930 -88.6390 234° Southwest 476 548 37,800  Level FlightAware ADS-B
Mon 11:37:32 PM 35.9490 -88.7140 234° Southwest 476 548 37,800  Level FlightAware ADS-B
Mon 11:38:12 PM 35.9050 -88.7890 234° Southwest 476 548 37,800  Level FlightAware ADS-B
Mon 11:39:02 PM 35.8500 -88.8820 234° Southwest 476 548 37,800  Level FlightAware ADS-B
Mon 11:39:42 PM 35.8060 -88.9570 234° Southwest 476 548 37,800  Level FlightAware ADS-B
Mon 11:40:22 PM 35.7620 -89.0320 234° Southwest 476 548 37,800  Level FlightAware ADS-B
Mon 11:41:02 PM 35.7180 -89.1060 234° Southwest 476 548 37,800  Level FlightAware ADS-B
Mon 11:41:42 PM 35.6740 -89.1810 234° Southwest 476 548 37,800  Level FlightAware ADS-B
Mon 11:42:32 PM 35.6190 -89.2740 234° Southwest 476 548 37,800 -17,211 Level FlightAware ADS-B
Mon 11:42:58 PM 35.5000 -89.3500 234° Southwest 382 440 16,000 -18,833 Descending KMEM
Mon 11:43:44 PM 35.4586 -89.4267 236° Southwest 389 448 15,200 -1,075 Descending Memphis Center
Mon 11:44:44 PM 35.3842 -89.5142 224° Southwest 373 429 14,100 -1,050 Descending Memphis Center
Mon 11:45:44 PM 35.3178 -89.6014 227° Southwest 365 420 13,100 -1,250 Descending Memphis Center
Mon 11:46:44 PM 35.2578 -89.6806 227° Southwest 340 391 11,600 -1,800 Descending Memphis Center
Mon 11:47:44 PM 35.1997 -89.7522 225° Southwest 312 359 9,500 -1,600 Descending Memphis Center
Mon 11:48:44 PM 35.1481 -89.8186 226° Southwest 288 331 8,400 -800 Descending Memphis Center
Mon 11:49:44 PM 35.0981 -89.8697 220° Southwest 254 292 7,900 -750 Descending Memphis Center
Mon 11:50:44 PM 35.0314 -89.8678 179° South 223 257 6,900 -1,050 Descending Memphis Center
Mon 11:51:44 PM 34.9667 -89.8681 180° South 229 264 5,800 -1,000 Descending Memphis Center
Mon 11:52:44 PM 34.9019 -89.8683 180° South 234 269 4,900 -900 Descending Memphis Center
Mon 11:53:44 PM 34.8375 -89.8661 178° South 234 269 4,000 -900 Descending Memphis Center
Mon 11:54:44 PM 34.8189 -89.9094 242° Southwest 176 203 3,100 -1,000 Descending Memphis Center
Mon 11:55:44 PM 34.8586 -89.9419 326° Northwest 92 106 2,000 -550 Descending Memphis Center
Mon 11:56:44 PM 34.8983 -89.9672 332° Northwest 132 152 2,000 72 Level Memphis Center
Mon 11:57:07 PM 34.9167 -89.9667 North 160 184 2,100 -209 Climbing KMEM
Mon 11:58:10 PM 34.9500 -89.9667 360° North 147 169 1,700 -458 Descending KMEM
Mon 11:59:05 PM 34.9833 -89.9667 360° North 108 124 1,200 -545 Descending KMEM
Tue 12:01:00 AM 35.0333 -89.9667 345° North  Level FlightAware Approximate
Tue 12:08:00 AM 35.0424 -89.9767 345° North  Level Estimated
Tue 12:09:00 AM 35.0424 -89.9767 345° North  Level Estimated
Tue 12:10:00 AM 35.0424 -89.9767 345° North  Level Estimated
Tue 12:11:00 AM 35.0424 -89.9767 345° North  Level Estimated
Tue 12:12:00 AM 35.0424 -89.9767 345° North  Level Estimated
Tue 12:13:00 AM 35.0424 -89.9767 345° North  Level Estimated
Tue 12:14:00 AM 35.0424 -89.9767 345° North  Level Estimated
Tue 12:15:00 AM 35.0424 -89.9767 345° North  Level Estimated

Login

Don't have an account? Register now (free) for customized features, flight alerts, and more!